Time;durP1;ratioP1;P1;durP2;ratioP2;P2;SDS_P1;SDS_P2;PMS_P1;PMS_P2;Temp;Humidity;BMP_temperature;BMP_pressure;BME280_temperature;BME280_humidity;BME280_pressure;Samples;Min_cycle;Max_cycle;Signal;HPM_P1;HPM_P2
2022/12/19 00:00:23;;;;;;;6.45;1.80;;;;;;;;;;5027492;28;20056;-72
2022/12/19 00:02:50;;;;;;;6.90;1.88;;;;;;;;;;5012149;28;20022;-72
2022/12/19 00:05:16;;;;;;;8.50;2.00;;;;;;;;;;5012248;28;20030;-72
2022/12/19 00:07:42;;;;;;;7.55;2.30;;;;;;;;;;5012368;28;20034;-72
2022/12/19 00:10:09;;;;;;;13.07;2.28;;;;;;;;;;5012340;28;20033;-72
2022/12/19 00:12:35;;;;;;;10.88;2.10;;;;;;;;;;5012092;28;20030;-73
2022/12/19 00:15:01;;;;;;;6.03;1.98;;;;;;;;;;5012148;28;20103;-72
2022/12/19 00:17:28;;;;;;;4.65;1.92;;;;;;;;;;5011958;28;20029;-72
2022/12/19 00:19:54;;;;;;;6.95;2.22;;;;;;;;;;5012369;28;20026;-72
2022/12/19 00:22:20;;;;;;;4.22;1.77;;;;;;;;;;5012032;28;20040;-73
2022/12/19 00:24:47;;;;;;;4.97;1.95;;;;;;;;;;5012077;28;20029;-72
2022/12/19 00:27:14;;;;;;;13.68;2.10;;;;;;;;;;5011574;28;20417;-72
2022/12/19 00:29:40;;;;;;;8.40;2.15;;;;;;;;;;5012006;28;20026;-72
2022/12/19 00:32:06;;;;;;;5.53;1.85;;;;;;;;;;5012308;28;20036;-72
2022/12/19 00:34:33;;;;;;;6.78;1.92;;;;;;;;;;5011938;28;20022;-72
2022/12/19 00:36:59;;;;;;;5.97;2.25;;;;;;;;;;5011912;28;20036;-72
2022/12/19 00:39:25;;;;;;;3.20;1.92;;;;;;;;;;5012205;28;20414;-72
2022/12/19 00:41:52;;;;;;;4.90;1.92;;;;;;;;;;5015543;28;20036;-72
2022/12/19 00:44:18;;;;;;;4.70;2.08;;;;;;;;;;5015626;28;20030;-72
2022/12/19 00:46:44;;;;;;;4.40;1.88;;;;;;;;;;5015353;28;20445;-72
2022/12/19 00:49:12;;;;;;;9.00;1.95;;;;;;;;;;5015488;28;20049;-72
2022/12/19 00:51:38;;;;;;;3.13;1.85;;;;;;;;;;5015483;28;20533;-72
2022/12/19 00:54:05;;;;;;;5.07;1.95;;;;;;;;;;5015436;28;20067;-72
2022/12/19 00:56:32;;;;;;;4.97;2.15;;;;;;;;;;5015358;28;20040;-72
2022/12/19 00:58:59;;;;;;;4.63;1.55;;;;;;;;;;5015590;28;20028;-72
2022/12/19 01:01:29;;;;;;;7.45;2.22;;;;;;;;;;5030478;28;20042;-72
2022/12/19 01:03:57;;;;;;;5.82;1.88;;;;;;;;;;5015488;28;20026;-72
2022/12/19 01:06:25;;;;;;;7.07;2.35;;;;;;;;;;5015278;28;20025;-72
2022/12/19 01:08:52;;;;;;;5.00;1.90;;;;;;;;;;5015013;28;20036;-72
2022/12/19 01:14:06;;;;;;;5.05;2.13;;;;;;;;;;5014907;28;20036;-72
2022/12/19 01:16:32;;;;;;;5.10;2.03;;;;;;;;;;5014975;28;20022;-72
2022/12/19 01:18:59;;;;;;;6.40;2.30;;;;;;;;;;5015267;28;20040;-72
2022/12/19 01:21:25;;;;;;;3.75;1.65;;;;;;;;;;5015191;28;20033;-72
2022/12/19 01:23:51;;;;;;;3.78;1.60;;;;;;;;;;5014427;28;20429;-73
2022/12/19 01:26:18;;;;;;;3.47;1.83;;;;;;;;;;5014997;28;20018;-72
2022/12/19 01:28:44;;;;;;;4.47;1.88;;;;;;;;;;5014664;28;20037;-72
2022/12/19 01:31:10;;;;;;;4.93;1.48;;;;;;;;;;5014742;28;20030;-72
2022/12/19 01:33:37;;;;;;;8.40;1.63;;;;;;;;;;5014624;28;20026;-72
2022/12/19 01:36:06;;;;;;;5.18;1.73;;;;;;;;;;5014912;28;20030;-72
2022/12/19 01:38:33;;;;;;;3.88;1.55;;;;;;;;;;5014014;28;20050;-72
2022/12/19 01:41:01;;;;;;;7.78;1.60;;;;;;;;;;5014524;28;20046;-72
2022/12/19 01:43:33;;;;;;;6.63;1.88;;;;;;;;;;5014480;28;20032;-72
2022/12/19 01:46:03;;;;;;;2.75;1.88;;;;;;;;;;5014576;28;20036;-72
2022/12/19 01:48:34;;;;;;;3.50;2.00;;;;;;;;;;5014257;28;20402;-72
2022/12/19 01:51:12;;;;;;;5.85;1.67;;;;;;;;;;5013806;28;20641;-72
2022/12/19 01:53:49;;;;;;;4.63;1.63;;;;;;;;;;5014310;28;20032;-73
2022/12/19 01:56:17;;;;;;;5.57;1.63;;;;;;;;;;5014200;28;20040;-72
2022/12/19 01:58:45;;;;;;;6.50;1.73;;;;;;;;;;5012878;28;20042;-72
2022/12/19 02:01:12;;;;;;;4.22;1.80;;;;;;;;;;5014073;28;20026;-72
2022/12/19 02:03:39;;;;;;;6.85;1.70;;;;;;;;;;5014143;28;20075;-72
2022/12/19 02:06:06;;;;;;;4.88;1.80;;;;;;;;;;5014337;28;20022;-72
2022/12/19 02:08:34;;;;;;;3.13;1.48;;;;;;;;;;5013389;28;20048;-72
2022/12/19 02:11:00;;;;;;;5.53;1.90;;;;;;;;;;5014138;28;20033;-72
2022/12/19 02:13:26;;;;;;;5.20;1.70;;;;;;;;;;5013714;28;20030;-72
2022/12/19 02:16:09;;;;;;;4.25;1.70;;;;;;;;;;5013789;28;20033;-72
2022/12/19 02:18:46;;;;;;;6.10;1.90;;;;;;;;;;5014010;28;20033;-72
2022/12/19 02:21:13;;;;;;;5.35;1.73;;;;;;;;;;5013895;28;20029;-72
2022/12/19 02:23:49;;;;;;;4.18;2.03;;;;;;;;;;5013594;28;20014;-72
2022/12/19 02:26:36;;;;;;;6.72;1.83;;;;;;;;;;5013913;28;20022;-72
2022/12/19 02:29:21;;;;;;;4.70;1.70;;;;;;;;;;5013600;28;20048;-72
2022/12/19 02:31:52;;;;;;;4.78;1.85;;;;;;;;;;5013632;28;20479;-72
2022/12/19 02:34:21;;;;;;;3.70;2.00;;;;;;;;;;5013486;28;20033;-72
2022/12/19 02:36:56;;;;;;;3.53;1.67;;;;;;;;;;5013068;28;20040;-72
2022/12/19 02:39:43;;;;;;;6.85;2.20;;;;;;;;;;5013260;28;20038;-72
2022/12/19 02:42:11;;;;;;;3.70;2.00;;;;;;;;;;5013101;28;20030;-72
2022/12/19 02:44:47;;;;;;;10.85;1.95;;;;;;;;;;5013538;28;20041;-72
2022/12/19 02:47:14;;;;;;;5.95;1.90;;;;;;;;;;5013261;28;20014;-72
2022/12/19 02:49:40;;;;;;;6.72;2.00;;;;;;;;;;5013456;28;20036;-72
2022/12/19 02:52:10;;;;;;;6.43;2.08;;;;;;;;;;5012761;28;20022;-72
2022/12/19 02:54:37;;;;;;;4.55;1.88;;;;;;;;;;5013346;28;20030;-72
2022/12/19 02:57:06;;;;;;;6.85;1.98;;;;;;;;;;5013145;28;20406;-72
2022/12/19 02:59:39;;;;;;;3.25;1.58;;;;;;;;;;5013305;28;20021;-72
2022/12/19 03:02:11;;;;;;;5.38;2.00;;;;;;;;;;5012389;28;20080;-72
2022/12/19 03:04:37;;;;;;;2.15;1.90;;;;;;;;;;5013148;28;20033;-72
2022/12/19 03:07:18;;;;;;;3.88;2.08;;;;;;;;;;5012771;28;20048;-72
2022/12/19 03:09:45;;;;;;;;;;;;;;;;;;5013309;28;20515;-72
2022/12/19 03:12:26;;;;;;;4.45;2.20;;;;;;;;;;5012830;28;19909;-72
2022/12/19 03:14:53;;;;;;;3.88;2.17;;;;;;;;;;5013077;28;20029;-71
2022/12/19 03:17:19;;;;;;;5.75;2.03;;;;;;;;;;5012754;28;20025;-72
2022/12/19 03:19:45;;;;;;;4.93;1.77;;;;;;;;;;5012971;28;20029;-73
2022/12/19 03:22:12;;;;;;;3.90;1.80;;;;;;;;;;5012803;28;20026;-72
2022/12/19 03:24:38;;;;;;;4.80;1.70;;;;;;;;;;5012682;28;20030;-72
2022/12/19 03:27:09;;;;;;;4.93;1.80;;;;;;;;;;5012757;28;20029;-72
2022/12/19 03:29:38;;;;;;;6.82;1.80;;;;;;;;;;5012687;28;20479;-72
2022/12/19 03:32:06;;;;;;;2.60;1.75;;;;;;;;;;5012724;28;20030;-72
2022/12/19 03:34:36;;;;;;;6.65;1.80;;;;;;;;;;5012372;28;20048;-71
2022/12/19 03:37:03;;;;;;;6.03;1.60;;;;;;;;;;5011255;28;20028;-72
2022/12/19 03:39:31;;;;;;;2.33;1.48;;;;;;;;;;5012653;28;20026;-72
2022/12/19 03:44:44;;;;;;;3.90;1.70;;;;;;;;;;5012682;28;20022;-72
2022/12/19 03:47:16;;;;;;;7.78;1.88;;;;;;;;;;5012307;28;20028;-72
2022/12/19 03:49:42;;;;;;;3.60;1.70;;;;;;;;;;5012118;28;20042;-72
2022/12/19 03:52:18;;;;;;;4.68;1.80;;;;;;;;;;5012492;28;20556;-71
2022/12/19 03:54:49;;;;;;;2.13;1.70;;;;;;;;;;5012509;28;20030;-72
2022/12/19 03:57:19;;;;;;;2.30;1.55;;;;;;;;;;5012262;28;20026;-71
2022/12/19 03:59:48;;;;;;;2.72;1.38;;;;;;;;;;5012500;28;20029;-71
2022/12/19 04:02:15;;;;;;;2.58;1.50;;;;;;;;;;5012271;28;20561;-71
2022/12/19 04:04:44;;;;;;;2.97;1.40;;;;;;;;;;5011828;28;20028;-72
2022/12/19 04:07:12;;;;;;;2.95;1.50;;;;;;;;;;5012248;28;20030;-72
2022/12/19 04:09:39;;;;;;;4.60;1.50;;;;;;;;;;5012116;28;20044;-72
2022/12/19 04:12:08;;;;;;;6.72;1.70;;;;;;;;;;5012086;28;20401;-71
2022/12/19 04:14:36;;;;;;;3.75;1.75;;;;;;;;;;5014266;28;20483;-72
2022/12/19 04:17:21;;;;;;;5.95;1.77;;;;;;;;;;5014823;28;20040;-72
2022/12/19 04:20:02;;;;;;;3.63;1.40;;;;;;;;;;5015765;28;20026;-72
2022/12/19 04:22:31;;;;;;;6.10;1.80;;;;;;;;;;5016069;28;20032;-72
2022/12/19 04:24:59;;;;;;;4.32;2.17;;;;;;;;;;5015936;28;20025;-72
2022/12/19 04:27:26;;;;;;;6.60;2.22;;;;;;;;;;5016022;28;20030;-72
2022/12/19 04:29:55;;;;;;;3.05;1.75;;;;;;;;;;5015925;28;20028;-72
2022/12/19 04:32:22;;;;;;;3.63;2.03;;;;;;;;;;5015358;28;20026;-72
2022/12/19 04:34:48;;;;;;;3.20;1.52;;;;;;;;;;5030934;28;20030;-72
2022/12/19 04:37:14;;;;;;;3.80;1.85;;;;;;;;;;5015522;28;20046;-72
2022/12/19 04:39:41;;;;;;;3.88;1.30;;;;;;;;;;5015730;28;20033;-72
2022/12/19 04:42:07;;;;;;;5.03;1.45;;;;;;;;;;5015607;28;20018;-72
2022/12/19 04:44:33;;;;;;;3.30;1.77;;;;;;;;;;5015641;28;20032;-72
2022/12/19 04:47:00;;;;;;;3.88;1.90;;;;;;;;;;5015085;28;20018;-72
2022/12/19 04:49:26;;;;;;;4.97;1.50;;;;;;;;;;5015427;28;20560;-72
2022/12/19 04:51:52;;;;;;;4.30;1.73;;;;;;;;;;5015401;28;20389;-72
2022/12/19 04:54:19;;;;;;;5.10;1.60;;;;;;;;;;5015674;28;20079;-72
2022/12/19 04:56:45;;;;;;;2.67;1.60;;;;;;;;;;5015434;28;20026;-72
2022/12/19 04:59:12;;;;;;;3.17;1.75;;;;;;;;;;5015323;28;20028;-72
2022/12/19 05:01:38;;;;;;;3.08;1.50;;;;;;;;;;5014972;28;20036;-72
2022/12/19 05:04:04;;;;;;;7.43;2.53;;;;;;;;;;5015328;28;20033;-72
2022/12/19 05:06:31;;;;;;;4.28;1.60;;;;;;;;;;5015225;28;20034;-72
2022/12/19 05:08:57;;;;;;;5.57;1.67;;;;;;;;;;5015122;28;20478;-72
2022/12/19 05:11:23;;;;;;;3.05;1.60;;;;;;;;;;5015042;28;20429;-72
2022/12/19 05:13:50;;;;;;;4.43;1.40;;;;;;;;;;5013961;28;20075;-72
2022/12/19 05:16:16;;;;;;;6.47;1.73;;;;;;;;;;5014602;28;20037;-72
2022/12/19 05:18:43;;;;;;;2.45;1.63;;;;;;;;;;5014991;28;20037;-72
2022/12/19 05:21:09;;;;;;;3.35;1.80;;;;;;;;;;5015089;28;20026;-72
2022/12/19 05:23:36;;;;;;;4.60;1.85;;;;;;;;;;5014790;28;20034;-72
2022/12/19 05:26:03;;;;;;;3.70;1.65;;;;;;;;;;5013963;28;20087;-72
2022/12/19 05:28:30;;;;;;;8.40;1.80;;;;;;;;;;5014755;28;20080;-72
2022/12/19 05:31:07;;;;;;;5.53;2.08;;;;;;;;;;5014508;28;20022;-72
2022/12/19 05:33:33;;;;;;;4.00;1.83;;;;;;;;;;5014578;28;20060;-72
2022/12/19 05:35:59;;;;;;;5.47;1.42;;;;;;;;;;5014636;28;20022;-72
2022/12/19 05:38:26;;;;;;;4.20;1.58;;;;;;;;;;5014600;28;20044;-72
2022/12/19 05:40:52;;;;;;;3.85;1.70;;;;;;;;;;5013254;28;20030;-72
2022/12/19 05:43:19;;;;;;;2.88;1.50;;;;;;;;;;4994808;28;20039;-72
2022/12/19 05:45:45;;;;;;;4.85;1.70;;;;;;;;;;4994597;28;20014;-72
2022/12/19 05:48:12;;;;;;;2.97;1.40;;;;;;;;;;5006879;28;20042;-72
2022/12/19 05:50:38;;;;;;;6.63;1.50;;;;;;;;;;5013087;28;20032;-72
2022/12/19 05:53:05;;;;;;;2.80;1.52;;;;;;;;;;5014721;28;20104;-72
2022/12/19 05:55:31;;;;;;;6.25;1.50;;;;;;;;;;5014332;28;20505;-72
2022/12/19 05:57:57;;;;;;;2.30;1.60;;;;;;;;;;5014308;28;20368;-72
2022/12/19 06:00:24;;;;;;;3.13;1.33;;;;;;;;;;5013804;28;20036;-72
2022/12/19 06:02:50;;;;;;;2.65;1.40;;;;;;;;;;5014294;28;20040;-72
2022/12/19 06:05:17;;;;;;;5.82;1.40;;;;;;;;;;5014028;28;20030;-73
2022/12/19 06:07:43;;;;;;;4.47;1.60;;;;;;;;;;5014324;28;20052;-72
2022/12/19 06:10:09;;;;;;;2.88;1.40;;;;;;;;;;5014031;28;20037;-72
2022/12/19 06:12:36;;;;;;;2.88;1.40;;;;;;;;;;5014063;28;20041;-72
2022/12/19 06:15:02;;;;;;;2.80;1.60;;;;;;;;;;5013646;28;20025;-72
2022/12/19 06:17:29;;;;;;;4.78;1.55;;;;;;;;;;5013857;28;20032;-72
2022/12/19 06:19:55;;;;;;;3.58;1.40;;;;;;;;;;5013862;28;20389;-72
2022/12/19 06:22:22;;;;;;;4.82;1.40;;;;;;;;;;5013743;28;20033;-72
2022/12/19 06:24:49;;;;;;;2.72;1.52;;;;;;;;;;5013605;28;20018;-72
2022/12/19 06:27:15;;;;;;;5.78;1.83;;;;;;;;;;5013682;28;20032;-72
2022/12/19 06:29:42;;;;;;;5.85;1.70;;;;;;;;;;5013212;28;20032;-72
2022/12/19 06:32:08;;;;;;;6.35;1.80;;;;;;;;;;5013766;28;20033;-72
2022/12/19 06:34:34;;;;;;;2.88;1.55;;;;;;;;;;5013513;28;20480;-72
2022/12/19 06:37:01;;;;;;;3.95;1.50;;;;;;;;;;5013332;28;20386;-72
2022/12/19 06:39:27;;;;;;;3.03;1.58;;;;;;;;;;5013414;28;20495;-72
2022/12/19 06:44:39;;;;;;;2.45;1.33;;;;;;;;;;5012956;28;20025;-72
2022/12/19 06:47:05;;;;;;;2.97;1.67;;;;;;;;;;5013095;28;20022;-72
2022/12/19 06:49:31;;;;;;;3.75;1.50;;;;;;;;;;5012157;28;20099;-72
2022/12/19 06:51:59;;;;;;;4.15;1.45;;;;;;;;;;5012040;28;20014;-72
2022/12/19 06:54:25;;;;;;;4.47;1.50;;;;;;;;;;5013204;28;20037;-72
2022/12/19 06:56:52;;;;;;;3.80;1.55;;;;;;;;;;5013179;28;20021;-72
2022/12/19 06:59:18;;;;;;;6.60;1.95;;;;;;;;;;5012687;28;20315;-72
2022/12/19 07:01:47;;;;;;;4.03;1.50;;;;;;;;;;5013178;28;20030;-72
2022/12/19 07:04:15;;;;;;;5.65;1.73;;;;;;;;;;5013155;28;20032;-72
2022/12/19 07:06:42;;;;;;;6.53;1.90;;;;;;;;;;5013109;28;20025;-72
2022/12/19 07:09:08;;;;;;;3.75;1.65;;;;;;;;;;5012960;28;20038;-72
2022/12/19 07:11:34;;;;;;;4.07;1.42;;;;;;;;;;5013159;28;20030;-72
2022/12/19 07:14:00;;;;;;;4.72;1.42;;;;;;;;;;5012521;28;20509;-72
2022/12/19 07:16:27;;;;;;;3.92;1.30;;;;;;;;;;5013071;28;20017;-72
2022/12/19 07:18:54;;;;;;;4.32;1.58;;;;;;;;;;5012936;28;20487;-72
2022/12/19 07:21:21;;;;;;;3.88;1.30;;;;;;;;;;5013168;28;20018;-72
2022/12/19 07:23:47;;;;;;;5.00;1.75;;;;;;;;;;5012808;28;20044;-72
2022/12/19 07:26:13;;;;;;;2.00;1.20;;;;;;;;;;5012647;28;20044;-72
2022/12/19 07:28:43;;;;;;;4.43;1.48;;;;;;;;;;5012559;28;20063;-72
2022/12/19 07:31:09;;;;;;;3.13;1.30;;;;;;;;;;5012860;28;20375;-72
2022/12/19 07:33:36;;;;;;;3.42;1.40;;;;;;;;;;5011730;28;20059;-73
2022/12/19 07:36:02;;;;;;;3.55;1.50;;;;;;;;;;5008262;28;20030;-72
2022/12/19 07:38:29;;;;;;;4.80;1.75;;;;;;;;;;5012906;28;20054;-72
2022/12/19 07:40:55;;;;;;;2.92;1.63;;;;;;;;;;5011267;28;20026;-72
2022/12/19 07:43:21;;;;;;;3.83;1.73;;;;;;;;;;5012276;28;20029;-72
2022/12/19 07:45:53;;;;;;;2.90;1.67;;;;;;;;;;5012710;28;20101;-72
2022/12/19 07:48:19;;;;;;;6.43;1.60;;;;;;;;;;5011644;28;20087;-72
2022/12/19 07:50:46;;;;;;;3.05;1.58;;;;;;;;;;5012458;28;20034;-72
2022/12/19 07:53:12;;;;;;;3.95;1.75;;;;;;;;;;5011841;28;20429;-72
2022/12/19 07:55:39;;;;;;;4.93;2.25;;;;;;;;;;5011992;28;20088;-72
2022/12/19 07:58:05;;;;;;;6.57;2.15;;;;;;;;;;5012216;28;20030;-72
2022/12/19 08:00:31;;;;;;;3.65;2.30;;;;;;;;;;5012105;28;20478;-72
2022/12/19 08:03:00;;;;;;;3.38;1.60;;;;;;;;;;5011972;28;20018;-72
2022/12/19 08:05:27;;;;;;;4.25;1.50;;;;;;;;;;5012166;28;20034;-72
2022/12/19 08:07:53;;;;;;;4.13;1.80;;;;;;;;;;5011822;28;20030;-72
2022/12/19 08:10:21;;;;;;;9.30;3.40;;;;;;;;;;5010289;28;20053;-72
2022/12/19 08:12:48;;;;;;;4.38;1.65;;;;;;;;;;5012210;28;20022;-72
2022/12/19 08:15:14;;;;;;;4.45;1.50;;;;;;;;;;5012093;28;20397;-72
2022/12/19 08:17:41;;;;;;;3.00;1.45;;;;;;;;;;5011481;28;20021;-72
2022/12/19 08:20:07;;;;;;;6.60;2.00;;;;;;;;;;5011998;28;20018;-72
2022/12/19 08:22:34;;;;;;;7.00;2.08;;;;;;;;;;5012203;28;20034;-72
2022/12/19 08:25:00;;;;;;;4.43;1.50;;;;;;;;;;5011811;28;20018;-71
2022/12/19 08:27:26;;;;;;;6.35;1.65;;;;;;;;;;5011920;28;20482;-71
2022/12/19 08:29:56;;;;;;;4.70;1.90;;;;;;;;;;5011850;28;20037;-72
2022/12/19 08:32:25;;;;;;;4.72;1.85;;;;;;;;;;5011987;28;20363;-72
2022/12/19 08:34:53;;;;;;;3.20;1.80;;;;;;;;;;5011745;28;20026;-72
2022/12/19 08:37:19;;;;;;;4.38;1.50;;;;;;;;;;5010681;28;20042;-72
2022/12/19 08:39:46;;;;;;;4.70;1.50;;;;;;;;;;5011542;28;20041;-71
2022/12/19 08:42:12;;;;;;;6.22;1.90;;;;;;;;;;5011653;28;20030;-72
2022/12/19 08:44:38;;;;;;;4.28;1.83;;;;;;;;;;5011535;28;20030;-72
2022/12/19 08:47:05;;;;;;;9.18;1.63;;;;;;;;;;5009761;28;20037;-71
2022/12/19 08:49:31;;;;;;;4.95;1.85;;;;;;;;;;5011706;28;20029;-71
2022/12/19 08:51:57;;;;;;;5.45;2.25;;;;;;;;;;5010543;28;20397;-72
2022/12/19 08:54:24;;;;;;;5.05;1.67;;;;;;;;;;5011351;28;20032;-72
2022/12/19 08:56:50;;;;;;;5.93;1.77;;;;;;;;;;5011577;28;20028;-72
2022/12/19 08:59:16;;;;;;;3.17;1.58;;;;;;;;;;5011541;28;20367;-72
2022/12/19 09:01:43;;;;;;;3.08;1.42;;;;;;;;;;5013814;28;20401;-72
2022/12/19 09:04:09;;;;;;;5.90;1.65;;;;;;;;;;5015183;28;20036;-72
2022/12/19 09:06:35;;;;;;;6.00;1.60;;;;;;;;;;5013316;28;21488;-72
2022/12/19 09:09:04;;;;;;;7.28;1.60;;;;;;;;;;5014625;28;20038;-70
2022/12/19 09:11:31;;;;;;;4.93;1.58;;;;;;;;;;5015189;28;20022;-71
2022/12/19 09:13:57;;;;;;;5.70;1.80;;;;;;;;;;5014795;28;20025;-71
2022/12/19 09:16:25;;;;;;;5.10;1.45;;;;;;;;;;5015316;28;20097;-71
2022/12/19 09:18:53;;;;;;;3.90;1.40;;;;;;;;;;5014909;28;20038;-71
2022/12/19 09:21:21;;;;;;;4.45;1.42;;;;;;;;;;5012754;28;20017;-73
2022/12/19 09:23:50;;;;;;;9.65;1.73;;;;;;;;;;5014498;28;20022;-71
2022/12/19 09:26:17;;;;;;;6.35;1.58;;;;;;;;;;5014712;28;20403;-71
2022/12/19 09:28:45;;;;;;;2.65;1.20;;;;;;;;;;5014619;28;20040;-71
2022/12/19 09:31:13;;;;;;;5.65;1.42;;;;;;;;;;5014643;28;20034;-72
2022/12/19 09:33:39;;;;;;;4.88;1.58;;;;;;;;;;5014815;28;20060;-71
2022/12/19 09:36:07;;;;;;;4.65;1.60;;;;;;;;;;5014475;28;20022;-71
2022/12/19 09:38:34;;;;;;;3.97;1.65;;;;;;;;;;5014115;28;20042;-72
2022/12/19 09:41:00;;;;;;;6.30;1.70;;;;;;;;;;5014571;28;20036;-71
2022/12/19 09:43:45;;;;;;;4.00;1.25;;;;;;;;;;5014497;28;20466;-72
2022/12/19 09:46:39;;;;;;;4.97;1.50;;;;;;;;;;5012994;28;20022;-72
2022/12/19 09:49:11;;;;;;;4.72;1.20;;;;;;;;;;5014215;28;20042;-72
2022/12/19 09:51:40;;;;;;;4.78;1.52;;;;;;;;;;5013912;28;20494;-72
2022/12/19 09:54:18;;;;;;;3.17;1.40;;;;;;;;;;5014194;28;20044;-71
2022/12/19 09:56:45;;;;;;;2.92;1.30;;;;;;;;;;5029375;28;20021;-72
2022/12/19 09:59:31;;;;;;;7.93;1.48;;;;;;;;;;5014134;28;20036;-72
2022/12/19 10:02:00;;;;;;;5.10;1.10;;;;;;;;;;5014365;28;20032;-72
2022/12/19 10:04:29;;;;;;;5.80;1.40;;;;;;;;;;5014159;28;20029;-72
2022/12/19 10:06:55;;;;;;;4.93;1.67;;;;;;;;;;4996077;28;20026;-72
2022/12/19 10:09:23;;;;;;;3.47;1.58;;;;;;;;;;5013743;28;20042;-72
2022/12/19 10:11:52;;;;;;;5.07;1.40;;;;;;;;;;5013479;28;20026;-71
2022/12/19 10:14:32;;;;;;;6.40;1.77;;;;;;;;;;5014034;28;20036;-72
2022/12/19 10:16:58;;;;;;;4.95;1.80;;;;;;;;;;5013866;28;20486;-72
2022/12/19 10:19:43;;;;;;;3.38;1.05;;;;;;;;;;5012752;28;20036;-72
2022/12/19 10:22:13;;;;;;;2.92;1.20;;;;;;;;;;5012806;28;20030;-71
2022/12/19 10:24:59;;;;;;;3.30;1.48;;;;;;;;;;5013396;28;20029;-71
2022/12/19 10:27:30;;;;;;;5.57;2.40;;;;;;;;;;5012431;28;20068;-72
2022/12/19 10:29:56;;;;;;;;;;;;;;;;;;5013931;28;20029;-72
2022/12/19 10:32:42;;;;;;;2.15;1.08;;;;;;;;;;5013477;28;19905;-72
2022/12/19 10:35:14;;;;;;;5.20;1.10;;;;;;;;;;5013040;28;20029;-72
2022/12/19 10:37:44;;;;;;;4.57;1.35;;;;;;;;;;5013289;28;20042;-72
2022/12/19 10:40:11;;;;;;;2.42;1.10;;;;;;;;;;5013346;28;20037;-71
2022/12/19 10:42:43;;;;;;;9.50;2.78;;;;;;;;;;5013113;28;20045;-72
2022/12/19 10:45:13;;;;;;;4.53;1.20;;;;;;;;;;5013243;28;20030;-71
2022/12/19 10:47:41;;;;;;;2.47;1.30;;;;;;;;;;5013480;28;20032;-71
2022/12/19 10:50:11;;;;;;;3.50;1.42;;;;;;;;;;5012696;28;20034;-72
2022/12/19 10:53:06;;;;;;;4.72;1.50;;;;;;;;;;5012987;28;20478;-72
2022/12/19 10:55:43;;;;;;;5.97;1.48;;;;;;;;;;5013011;28;20041;-72
2022/12/19 10:58:17;;;;;;;3.88;1.08;;;;;;;;;;5012907;28;20018;-72
2022/12/19 11:01:06;;;;;;;6.18;1.50;;;;;;;;;;5012870;28;20032;-72
2022/12/19 11:03:33;;;;;;;2.75;1.25;;;;;;;;;;4990986;28;20040;-71
2022/12/19 11:06:01;;;;;;;3.28;1.67;;;;;;;;;;4990777;28;20034;-72
2022/12/19 11:08:31;;;;;;;5.47;2.42;;;;;;;;;;4990994;28;20064;-72
2022/12/19 11:10:58;;;;;;;3.63;1.10;;;;;;;;;;4990426;28;20037;-71
2022/12/19 11:13:29;;;;;;;7.18;1.75;;;;;;;;;;4990885;28;20048;-72
2022/12/19 11:15:56;;;;;;;5.05;1.63;;;;;;;;;;4990935;28;20081;-71
2022/12/19 11:18:23;;;;;;;2.50;1.30;;;;;;;;;;4990799;28;20042;-71
2022/12/19 11:20:58;;;;;;;4.55;1.17;;;;;;;;;;4990852;28;20511;-71
2022/12/19 11:23:25;;;;;;;11.85;5.43;;;;;;;;;;4989899;28;20027;-71
2022/12/19 11:25:53;;;;;;;4.70;1.45;;;;;;;;;;4990937;28;20437;-72
2022/12/19 11:28:23;;;;;;;5.50;1.60;;;;;;;;;;4991009;28;20038;-72
2022/12/19 11:31:16;;;;;;;5.10;1.65;;;;;;;;;;4990725;28;20038;-72
2022/12/19 11:33:45;;;;;;;2.65;1.15;;;;;;;;;;4987188;28;20038;-72
2022/12/19 11:36:29;;;;;;;7.47;1.67;;;;;;;;;;4990577;28;20038;-72
2022/12/19 11:38:55;;;;;;;5.80;1.75;;;;;;;;;;4990443;28;20056;-71
2022/12/19 11:41:29;;;;;;;6.28;1.30;;;;;;;;;;5009077;28;20030;-72
2022/12/19 11:43:55;;;;;;;7.20;1.83;;;;;;;;;;5012532;28;20040;-72
2022/12/19 11:46:25;;;;;;;6.07;3.22;;;;;;;;;;5011722;28;20018;-71
2022/12/19 11:48:54;;;;;;;8.37;2.97;;;;;;;;;;5012008;28;20042;-71
2022/12/19 11:51:25;;;;;;;3.40;1.20;;;;;;;;;;5012249;28;20765;-71
2022/12/19 11:54:00;;;;;;;2.35;1.17;;;;;;;;;;5012266;28;20512;-71
2022/12/19 11:56:28;;;;;;;4.40;1.20;;;;;;;;;;5012335;28;20036;-71
2022/12/19 11:58:57;;;;;;;3.03;1.17;;;;;;;;;;5012166;28;20028;-71
2022/12/19 12:01:41;;;;;;;7.15;2.60;;;;;;;;;;5012016;28;20036;-71
2022/12/19 12:04:17;;;;;;;4.85;1.27;;;;;;;;;;5011789;28;20018;-71
2022/12/19 12:06:47;;;;;;;3.03;1.20;;;;;;;;;;5012214;28;20030;-71
2022/12/19 12:09:19;;;;;;;4.77;0.97;;;;;;;;;;5012076;28;20037;-72
2022/12/19 12:11:51;;;;;;;5.28;2.35;;;;;;;;;;5012107;28;20029;-71
2022/12/19 12:14:19;;;;;;;4.50;1.10;;;;;;;;;;5012303;28;20028;-71
2022/12/19 12:16:46;;;;;;;4.00;1.10;;;;;;;;;;5011964;28;20501;-71
2022/12/19 12:19:12;;;;;;;3.65;1.25;;;;;;;;;;5012037;28;20018;-72
2022/12/19 12:22:04;;;;;;;5.88;0.95;;;;;;;;;;5011939;28;20028;-71
2022/12/19 12:24:31;;;;;;;2.95;1.00;;;;;;;;;;4985580;28;20041;-71
2022/12/19 12:27:06;;;;;;;2.20;1.00;;;;;;;;;;4989333;28;20136;-71
2022/12/19 12:29:42;;;;;;;5.40;1.10;;;;;;;;;;4989686;28;20046;-71
2022/12/19 12:32:26;;;;;;;3.38;1.10;;;;;;;;;;4988839;28;20026;-71
2022/12/19 12:35:11;;;;;;;2.40;1.13;;;;;;;;;;4990772;28;20050;-72
2022/12/19 12:37:44;;;;;;;2.20;0.70;;;;;;;;;;4993037;28;20721;-71
2022/12/19 12:40:27;;;;;;;3.20;1.00;;;;;;;;;;4992945;28;20034;-70
2022/12/19 12:42:56;;;;;;;5.20;1.90;;;;;;;;;;4993951;28;20042;-71
2022/12/19 12:45:25;;;;;;;5.28;1.33;;;;;;;;;;5010327;28;20038;-71
2022/12/19 12:47:52;;;;;;;4.63;0.75;;;;;;;;;;5000889;28;20050;-72
2022/12/19 12:50:20;;;;;;;5.65;1.23;;;;;;;;;;4992455;28;20038;-71
2022/12/19 12:52:49;;;;;;;2.33;0.90;;;;;;;;;;4992757;28;20036;-71
2022/12/19 12:55:20;;;;;;;3.00;1.13;;;;;;;;;;4992985;28;20030;-71
2022/12/19 12:57:46;;;;;;;6.00;1.17;;;;;;;;;;4991395;28;20018;-70
2022/12/19 13:00:13;;;;;;;3.67;0.77;;;;;;;;;;4990121;28;20030;-70
2022/12/19 13:02:39;;;;;;;4.07;0.88;;;;;;;;;;5012237;28;20044;-69
2022/12/19 13:05:18;;;;;;;7.90;0.90;;;;;;;;;;5014624;28;20022;-71
2022/12/19 13:07:52;;;;;;;3.40;0.82;;;;;;;;;;5014445;28;20501;-70
2022/12/19 13:10:22;;;;;;;5.18;1.27;;;;;;;;;;5014286;28;20030;-70
2022/12/19 13:13:00;;;;;;;8.18;1.30;;;;;;;;;;5013789;28;20025;-71
2022/12/19 13:15:26;;;;;;;4.78;0.88;;;;;;;;;;5013900;28;20033;-70
2022/12/19 13:17:53;;;;;;;6.53;1.20;;;;;;;;;;5014365;28;20124;-70
2022/12/19 13:20:25;;;;;;;9.13;2.38;;;;;;;;;;5014271;28;20026;-70
2022/12/19 13:22:57;;;;;;;5.55;0.80;;;;;;;;;;5014466;28;20033;-70
2022/12/19 13:25:26;;;;;;;4.63;1.00;;;;;;;;;;5013168;28;20030;-70
2022/12/19 13:27:57;;;;;;;2.15;0.90;;;;;;;;;;5014210;28;20021;-71
2022/12/19 13:30:23;;;;;;;;;;;;;;;;;;5013995;28;20028;-71
2022/12/19 13:32:50;;;;;;;3.97;0.98;;;;;;;;;;5013676;28;19963;-71
2022/12/19 13:35:16;;;;;;;6.60;1.15;;;;;;;;;;5013887;28;20036;-70
2022/12/19 13:37:46;;;;;;;4.45;1.10;;;;;;;;;;5014237;28;20058;-69
2022/12/19 13:40:31;;;;;;;3.70;1.50;;;;;;;;;;5012184;28;20034;-69
2022/12/19 13:46:01;;;;;;;4.50;1.35;;;;;;;;;;5012867;28;20380;-71
2022/12/19 13:48:30;;;;;;;6.03;1.02;;;;;;;;;;5013281;28;20079;-70
2022/12/19 13:50:58;;;;;;;4.78;0.82;;;;;;;;;;5013367;28;20516;-70
2022/12/19 13:53:26;;;;;;;4.90;1.02;;;;;;;;;;5013551;28;20485;-70
2022/12/19 13:55:58;;;;;;;6.32;1.48;;;;;;;;;;5013656;28;20028;-71
2022/12/19 13:58:26;;;;;;;6.45;1.55;;;;;;;;;;5013412;28;20030;-71
2022/12/19 14:00:54;;;;;;;5.15;1.10;;;;;;;;;;5013756;28;20029;-70
2022/12/19 14:03:24;;;;;;;3.75;1.10;;;;;;;;;;5013414;28;20049;-71
2022/12/19 14:05:51;;;;;;;8.10;1.45;;;;;;;;;;5013315;28;20044;-70
2022/12/19 14:08:22;;;;;;;7.25;0.95;;;;;;;;;;5013328;28;20048;-70
2022/12/19 14:10:49;;;;;;;3.55;1.05;;;;;;;;;;5013365;28;20044;-70
2022/12/19 14:16:03;;;;;;;4.80;0.93;;;;;;;;;;5012821;28;20021;-70
2022/12/19 14:18:31;;;;;;;2.80;1.10;;;;;;;;;;5012611;28;20402;-70
2022/12/19 14:21:18;;;;;;;5.22;1.05;;;;;;;;;;5013196;28;20536;-70
2022/12/19 14:23:44;;;;;;;5.65;0.93;;;;;;;;;;5013093;28;20034;-70
2022/12/19 14:26:25;;;;;;;5.40;1.23;;;;;;;;;;5013213;28;20025;-71
2022/12/19 14:28:58;;;;;;;6.07;1.20;;;;;;;;;;5012314;28;20666;-71
2022/12/19 14:31:25;;;;;;;3.67;0.80;;;;;;;;;;5012431;28;20037;-70
2022/12/19 14:33:52;;;;;;;3.72;0.80;;;;;;;;;;5013440;28;20026;-70
2022/12/19 14:36:26;;;;;;;3.45;0.90;;;;;;;;;;5012510;28;20017;-70
2022/12/19 14:38:52;;;;;;;4.63;1.02;;;;;;;;;;5008013;28;20042;-70
2022/12/19 14:44:41;;;;;;;3.50;1.10;;;;;;;;;;5012558;28;20467;-70
2022/12/19 14:47:11;;;;;;;4.28;1.30;;;;;;;;;;5012528;28;20010;-71
2022/12/19 14:49:37;;;;;;;14.87;3.57;;;;;;;;;;5012527;28;20041;-70
2022/12/19 14:52:05;;;;;;;2.92;0.82;;;;;;;;;;5012564;28;20064;-70
2022/12/19 14:54:31;;;;;;;5.22;1.08;;;;;;;;;;5012562;28;20026;-69
2022/12/19 14:56:59;;;;;;;4.72;0.90;;;;;;;;;;5012287;28;20022;-70
2022/12/19 14:59:34;;;;;;;6.65;1.63;;;;;;;;;;5010991;28;20016;-69
2022/12/19 15:02:04;;;;;;;3.78;0.90;;;;;;;;;;5012488;28;20401;-70
2022/12/19 15:04:32;;;;;;;5.22;0.80;;;;;;;;;;5012560;28;20022;-69
2022/12/19 15:07:01;;;;;;;6.20;1.55;;;;;;;;;;5011827;28;20018;-71
2022/12/19 15:09:28;;;;;;;5.47;1.73;;;;;;;;;;5011507;28;20410;-70
2022/12/19 15:14:48;;;;;;;4.75;1.15;;;;;;;;;;5012097;28;20029;-69